createdAt,value
2023-12-14T00:01:41.808Z,99178.22
2023-12-14T00:04:13.886Z,99167.97
2023-12-14T00:06:45.635Z,99193.25
2023-12-14T00:09:17.389Z,99168.16
2023-12-14T00:11:49.157Z,99192.06
2023-12-14T00:14:20.984Z,99192.63
2023-12-14T00:16:52.862Z,99182.34
2023-12-14T00:19:25.246Z,99179.88
2023-12-14T00:21:57.032Z,99206.47
2023-12-14T00:24:28.801Z,99206.25
2023-12-14T00:27:00.557Z,99206.31
2023-12-14T00:29:32.443Z,99207.09
2023-12-14T00:32:04.537Z,99184.88
2023-12-14T00:34:36.801Z,99196.88
2023-12-14T00:37:08.589Z,99211.16
2023-12-14T00:39:40.350Z,99218.44
2023-12-14T00:42:12.099Z,99211.97
2023-12-14T00:44:43.858Z,99224.81
2023-12-14T00:47:15.701Z,99226.88
2023-12-14T00:49:47.542Z,99230.88
2023-12-14T00:52:19.330Z,99241.69
2023-12-14T00:54:51.162Z,99230.59
2023-12-14T00:57:22.984Z,99225.66
2023-12-14T00:59:55.499Z,99253.19
2023-12-14T01:02:27.315Z,99227.31
2023-12-14T01:05:00.267Z,99247.72
2023-12-14T01:07:32.250Z,99232.19
2023-12-14T01:10:05.045Z,99251.84
2023-12-14T01:12:37.085Z,99217.47
2023-12-14T01:15:09.497Z,99235.84
2023-12-14T01:17:41.291Z,99216.81
2023-12-14T01:20:13.595Z,99239.97
2023-12-14T01:22:45.490Z,99247.81
2023-12-14T01:25:17.614Z,99231.72
2023-12-14T01:27:49.522Z,99250.47
2023-12-14T01:30:21.322Z,99236.31
2023-12-14T01:32:53.116Z,99244.53
2023-12-14T01:35:25.308Z,99233.53
2023-12-14T01:37:57.101Z,99224.69
2023-12-14T01:40:28.930Z,99241.44
2023-12-14T01:43:11.938Z,99249.78
2023-12-14T01:45:43.829Z,99244.41
2023-12-14T01:48:15.701Z,99249.66
2023-12-14T01:50:47.499Z,99223.44
2023-12-14T01:53:19.433Z,99251.69
2023-12-14T01:55:51.430Z,99233.44
2023-12-14T01:58:23.257Z,99239.53
2023-12-14T02:01:00.261Z,99251.94
2023-12-14T02:03:32.012Z,99231.47
2023-12-14T02:06:04.439Z,99240.81
2023-12-14T02:08:36.216Z,99244.84
2023-12-14T02:11:08.379Z,99246.84
2023-12-14T02:13:40.263Z,99240.72
2023-12-14T02:16:12.116Z,99234.25
2023-12-14T02:18:43.945Z,99241.84
2023-12-14T02:21:16.082Z,99248.50
2023-12-14T02:23:48.044Z,99248.66
2023-12-14T02:26:19.805Z,99241.63
2023-12-14T02:28:51.642Z,99249.53
2023-12-14T02:31:24.821Z,99250.53
2023-12-14T02:33:56.659Z,99241.78
2023-12-14T02:36:28.469Z,99245.41
2023-12-14T02:39:00.283Z,99244.50
2023-12-14T02:41:32.195Z,99232.91
2023-12-14T02:44:03.992Z,99243.84
2023-12-14T02:46:35.940Z,99254.56
2023-12-14T02:49:08.020Z,99251.59
2023-12-14T02:51:39.861Z,99233.56
2023-12-14T02:54:11.611Z,99229.78
2023-12-14T02:56:43.382Z,99244.50
2023-12-14T02:59:15.186Z,99240.69
2023-12-14T03:01:46.983Z,99220.34
2023-12-14T03:04:18.791Z,99236.06
2023-12-14T03:06:50.613Z,99242.00
2023-12-14T03:09:22.361Z,99247.28
2023-12-14T03:11:54.136Z,99252.50
2023-12-14T03:14:26.017Z,99247.97
2023-12-14T03:16:57.804Z,99242.00
2023-12-14T03:19:30.051Z,99247.47
2023-12-14T03:22:01.812Z,99229.47
2023-12-14T03:24:33.859Z,99248.28
2023-12-14T03:27:05.965Z,99271.78
2023-12-14T03:29:37.833Z,99258.41
2023-12-14T03:32:09.639Z,99272.94
2023-12-14T03:34:42.230Z,99277.09
2023-12-14T03:37:14.104Z,99274.59
2023-12-14T03:39:45.853Z,99274.56
2023-12-14T03:42:17.612Z,99282.97
2023-12-14T03:44:49.375Z,99293.59
2023-12-14T03:47:21.135Z,99281.38
2023-12-14T03:49:53.024Z,99280.94
2023-12-14T03:52:24.853Z,99268.19
2023-12-14T03:54:56.628Z,99300.38
2023-12-14T03:57:28.474Z,99288.56
2023-12-14T04:00:00.228Z,99269.28
2023-12-14T04:02:32.203Z,99294.84
2023-12-14T04:05:04.799Z,99289.38
2023-12-14T04:07:42.092Z,99303.25
2023-12-14T04:10:14.579Z,99305.50
2023-12-14T04:12:46.368Z,99292.50
2023-12-14T04:15:18.209Z,99302.75
2023-12-14T04:17:50.094Z,99275.25
2023-12-14T04:20:21.949Z,99306.16
2023-12-14T04:22:53.756Z,99316.75
2023-12-14T04:25:25.559Z,99307.88
2023-12-14T04:27:57.366Z,99330.00
2023-12-14T04:30:29.139Z,99306.94
2023-12-14T04:33:00.983Z,99307.56
2023-12-14T04:35:37.808Z,99324.59
2023-12-14T04:38:09.904Z,99311.22
2023-12-14T04:40:43.686Z,99323.13
2023-12-14T04:43:16.491Z,99328.06
2023-12-14T04:45:48.263Z,99324.84
2023-12-14T04:48:20.072Z,99334.84
2023-12-14T04:50:51.884Z,99342.06
2023-12-14T04:53:23.770Z,99336.91
2023-12-14T04:55:55.629Z,99342.84
2023-12-14T04:58:27.495Z,99347.00
2023-12-14T05:00:59.282Z,99347.63
2023-12-14T05:03:31.140Z,99360.06
2023-12-14T05:06:03.003Z,99367.50
2023-12-14T05:08:35.167Z,99364.69
2023-12-14T05:11:07.141Z,99348.38
2023-12-14T05:13:38.958Z,99342.97
2023-12-14T05:16:16.876Z,99380.31
2023-12-14T05:18:48.702Z,99361.56
2023-12-14T05:21:20.813Z,99388.47
2023-12-14T05:23:52.631Z,99386.50
2023-12-14T05:26:24.432Z,99393.38
2023-12-14T05:28:56.248Z,99381.38
2023-12-14T05:31:28.020Z,99390.56
2023-12-14T05:34:00.252Z,99403.75
2023-12-14T05:36:32.111Z,99392.44
2023-12-14T05:39:04.947Z,99414.06
2023-12-14T05:41:41.860Z,99404.59
2023-12-14T05:44:14.694Z,99421.00
2023-12-14T05:46:46.670Z,99408.13
2023-12-14T05:49:18.486Z,99381.56
2023-12-14T05:51:50.265Z,99412.72
2023-12-14T05:54:22.077Z,99424.06
2023-12-14T05:56:53.843Z,99425.81
2023-12-14T05:59:25.880Z,99430.34
2023-12-14T06:02:01.392Z,99450.06
2023-12-14T06:04:33.359Z,99428.00
2023-12-14T06:07:05.286Z,99436.53
2023-12-14T06:09:37.166Z,99445.72
2023-12-14T06:12:08.946Z,99438.56
2023-12-14T06:14:40.721Z,99447.69
2023-12-14T06:17:12.518Z,99466.44
2023-12-14T06:19:44.355Z,99455.75
2023-12-14T06:22:16.181Z,99463.81
2023-12-14T06:24:48.024Z,99469.25
2023-12-14T06:27:19.848Z,99474.75
2023-12-14T06:29:51.623Z,99486.94
2023-12-14T06:32:23.467Z,99480.84
2023-12-14T06:34:55.427Z,99474.75
2023-12-14T06:37:27.217Z,99494.84
2023-12-14T06:39:58.995Z,99472.47
2023-12-14T06:42:31.635Z,99488.06
2023-12-14T06:45:04.138Z,99457.41
2023-12-14T06:47:36.024Z,99485.22
2023-12-14T06:50:07.976Z,99482.25
2023-12-14T06:52:39.842Z,99465.59
2023-12-14T06:55:12.213Z,99503.50
2023-12-14T06:57:45.368Z,99490.06
2023-12-14T07:00:17.409Z,99504.63
2023-12-14T07:02:49.213Z,99497.31
2023-12-14T07:05:21.324Z,99490.16
2023-12-14T07:07:53.266Z,99505.31
2023-12-14T07:10:25.515Z,99485.63
2023-12-14T07:12:57.313Z,99515.25
2023-12-14T07:15:29.114Z,99495.19
2023-12-14T07:18:01.124Z,99501.31
2023-12-14T07:20:33.272Z,99502.63
2023-12-14T07:23:05.072Z,99513.00
2023-12-14T07:25:36.920Z,99491.81
2023-12-14T07:28:08.695Z,99508.31
2023-12-14T07:30:40.538Z,99494.75
2023-12-14T07:33:12.581Z,99509.31
2023-12-14T07:35:44.539Z,99521.81
2023-12-14T07:38:16.511Z,99518.88
2023-12-14T07:40:48.469Z,99530.34
2023-12-14T07:43:20.303Z,99516.16
2023-12-14T07:45:52.085Z,99520.69
2023-12-14T07:48:23.975Z,99523.25
2023-12-14T07:50:55.844Z,99528.47
2023-12-14T07:53:28.139Z,99535.25
2023-12-14T07:55:59.963Z,99539.53
2023-12-14T07:58:31.800Z,99549.53
2023-12-14T08:01:03.873Z,99542.78
2023-12-14T08:03:36.638Z,99541.03
2023-12-14T08:06:08.502Z,99554.69
2023-12-14T08:08:40.306Z,99563.13
2023-12-14T08:11:12.140Z,99568.25
2023-12-14T08:13:44.099Z,99572.31
2023-12-14T08:16:17.028Z,99567.09
2023-12-14T08:18:49.812Z,99573.53
2023-12-14T08:21:21.676Z,99569.00
2023-12-14T08:23:53.839Z,99554.69
2023-12-14T08:26:25.637Z,99572.25
2023-12-14T08:28:57.450Z,99579.66
2023-12-14T08:31:29.253Z,99584.41
2023-12-14T08:34:01.140Z,99571.94
2023-12-14T08:36:33.050Z,99569.75
2023-12-14T08:39:04.808Z,99599.84
2023-12-14T08:41:36.613Z,99596.31
2023-12-14T08:44:09.215Z,99596.66
2023-12-14T08:46:42.860Z,99610.84
2023-12-14T08:49:15.329Z,99602.16
2023-12-14T08:51:47.132Z,99622.25
2023-12-14T08:54:18.936Z,99626.19
2023-12-14T08:56:50.772Z,99632.03
2023-12-14T08:59:22.581Z,99631.41
2023-12-14T09:01:54.594Z,99617.41
2023-12-14T09:04:26.479Z,99615.41
2023-12-14T09:06:58.228Z,99627.91
2023-12-14T09:09:29.982Z,99650.50
2023-12-14T09:12:01.799Z,99648.41
2023-12-14T09:14:33.554Z,99631.41
2023-12-14T09:17:05.384Z,99649.53
2023-12-14T09:19:37.223Z,99640.31
2023-12-14T09:22:09.037Z,99645.53
2023-12-14T09:24:40.894Z,99649.66
2023-12-14T09:27:13.165Z,99653.94
2023-12-14T09:29:45.086Z,99646.88
2023-12-14T09:32:18.640Z,99654.00
2023-12-14T09:34:50.535Z,99659.75
2023-12-14T09:37:22.300Z,99658.00
2023-12-14T09:39:54.100Z,99653.78
2023-12-14T09:42:25.901Z,99662.53
2023-12-14T09:44:59.017Z,99644.59
2023-12-14T09:47:30.871Z,99656.22
2023-12-14T09:50:02.873Z,99661.72
2023-12-14T09:52:35.177Z,99673.00
2023-12-14T09:55:07.171Z,99642.47
2023-12-14T09:57:39.093Z,99668.53
2023-12-14T10:00:12.415Z,99652.78
2023-12-14T10:02:49.377Z,99670.13
2023-12-14T10:05:21.302Z,99668.00
2023-12-14T10:07:53.756Z,99681.50
2023-12-14T10:10:30.424Z,99681.00
2023-12-14T10:13:02.255Z,99686.06
2023-12-14T10:15:44.190Z,99677.88
2023-12-14T10:18:24.411Z,99680.81
2023-12-14T10:20:57.248Z,99667.88
2023-12-14T10:23:29.471Z,99667.09
2023-12-14T10:26:01.349Z,99664.88
2023-12-14T10:28:33.691Z,99679.19
2023-12-14T10:31:06.733Z,99679.13
2023-12-14T10:33:39.623Z,99685.56
2023-12-14T10:36:11.610Z,99659.53
2023-12-14T10:38:45.388Z,99681.84
2023-12-14T10:41:19.252Z,99695.97
2023-12-14T10:44:12.327Z,99702.66
2023-12-14T10:46:49.968Z,99685.00
2023-12-14T10:49:21.820Z,99692.97
2023-12-14T10:51:58.229Z,99701.09
2023-12-14T10:54:33.164Z,99678.31
2023-12-14T10:57:07.287Z,99713.19
2023-12-14T10:59:39.105Z,99710.03
2023-12-14T11:02:11.956Z,99732.84
2023-12-14T11:05:07.197Z,99708.34
2023-12-14T11:07:49.629Z,99738.75
2023-12-14T11:10:29.145Z,99741.03
2023-12-14T11:13:01.358Z,99742.72
2023-12-14T11:15:36.893Z,99735.38
2023-12-14T11:18:11.771Z,99744.03
2023-12-14T11:20:46.819Z,99751.44
2023-12-14T11:23:25.201Z,99749.16
2023-12-14T11:26:08.075Z,99752.69
2023-12-14T11:28:44.566Z,99744.56
2023-12-14T11:31:17.441Z,99751.13
2023-12-14T11:33:49.525Z,99756.00
2023-12-14T11:36:21.767Z,99747.25
2023-12-14T11:38:56.019Z,99750.75
2023-12-14T11:41:30.563Z,99749.00
2023-12-14T11:44:02.575Z,99744.66
2023-12-14T11:46:34.858Z,99768.16
2023-12-14T11:49:06.767Z,99742.97
2023-12-14T11:51:39.589Z,99770.81
2023-12-14T11:54:11.520Z,99751.13
2023-12-14T11:56:50.727Z,99777.59
2023-12-14T11:59:22.857Z,99751.13
2023-12-14T12:01:56.327Z,99766.72
2023-12-14T12:04:29.145Z,99776.06
2023-12-14T12:07:05.809Z,99736.50
2023-12-14T12:09:45.047Z,99784.78
2023-12-14T12:12:16.823Z,99778.41
2023-12-14T12:14:50.871Z,99773.16
2023-12-14T12:17:23.063Z,99773.22
2023-12-14T12:19:55.081Z,99786.38
2023-12-14T12:22:26.868Z,99759.75
2023-12-14T12:25:08.549Z,99790.50
2023-12-14T12:27:48.413Z,99786.75
2023-12-14T12:30:20.594Z,99788.84
2023-12-14T12:32:52.976Z,99794.47
2023-12-14T12:35:25.463Z,99800.38
2023-12-14T12:37:57.341Z,99790.25
2023-12-14T12:40:31.282Z,99801.94
2023-12-14T12:43:03.913Z,99792.81
2023-12-14T12:45:36.626Z,99778.13
2023-12-14T12:48:12.261Z,99751.75
2023-12-14T12:50:44.331Z,99809.72
2023-12-14T12:53:16.332Z,99814.84
2023-12-14T12:55:48.151Z,99824.53
2023-12-14T12:58:19.920Z,99814.69
2023-12-14T13:00:51.681Z,99802.84
2023-12-14T13:03:23.503Z,99819.09
2023-12-14T13:05:55.878Z,99811.28
2023-12-14T13:08:27.790Z,99827.56
2023-12-14T13:10:59.599Z,99821.16
2023-12-14T13:13:32.562Z,99826.44
2023-12-14T13:16:04.659Z,99839.31
2023-12-14T13:18:36.487Z,99841.22
2023-12-14T13:21:08.300Z,99836.38
2023-12-14T13:23:40.180Z,99834.28
2023-12-14T13:26:11.997Z,99842.13
2023-12-14T13:28:46.489Z,99845.59
2023-12-14T13:31:18.354Z,99854.75
2023-12-14T13:33:51.724Z,99836.13
2023-12-14T13:36:23.636Z,99861.34
2023-12-14T13:38:55.546Z,99848.47
2023-12-14T13:41:27.645Z,99862.25
2023-12-14T13:43:59.481Z,99872.88
2023-12-14T13:46:31.327Z,99869.75
2023-12-14T13:49:03.308Z,99874.81
2023-12-14T13:51:35.332Z,99870.22
2023-12-14T13:54:07.177Z,99897.91
2023-12-14T13:56:39.012Z,99886.25
2023-12-14T13:59:10.821Z,99885.81
2023-12-14T14:01:42.955Z,99896.69
2023-12-14T14:04:15.278Z,99886.56
2023-12-14T14:06:47.495Z,99898.88
2023-12-14T14:09:19.246Z,99899.03
2023-12-14T14:11:52.226Z,99905.91
2023-12-14T14:14:26.694Z,99897.34
2023-12-14T14:16:58.630Z,99904.88
2023-12-14T14:19:30.911Z,99913.47
2023-12-14T14:22:02.673Z,99926.59
2023-12-14T14:24:34.444Z,99905.59
2023-12-14T14:27:06.230Z,99934.72
2023-12-14T14:29:38.057Z,99939.13
2023-12-14T14:32:10.067Z,99931.94
2023-12-14T14:34:42.294Z,99941.19
2023-12-14T14:37:14.222Z,99927.09
2023-12-14T14:39:45.993Z,99935.16
2023-12-14T14:42:17.990Z,99957.25
2023-12-14T14:44:49.738Z,99953.50
2023-12-14T14:47:23.300Z,99965.47
2023-12-14T14:49:58.721Z,99968.78
2023-12-14T14:52:30.697Z,99976.84
2023-12-14T14:55:02.498Z,99952.38
2023-12-14T14:57:34.974Z,99953.75
2023-12-14T15:00:08.191Z,99971.34
2023-12-14T15:02:40.235Z,99953.75
2023-12-14T15:05:12.658Z,99948.97
2023-12-14T15:07:44.558Z,99963.88
2023-12-14T15:10:16.405Z,99966.53
2023-12-14T15:12:48.178Z,99973.16
2023-12-14T15:15:20.009Z,99979.88
2023-12-14T15:17:51.823Z,99984.91
2023-12-14T15:20:23.722Z,99967.09
2023-12-14T15:22:55.621Z,99961.69
2023-12-14T15:25:28.165Z,99981.06
2023-12-14T15:27:59.981Z,99992.69
2023-12-14T15:30:31.849Z,99978.88
2023-12-14T15:33:05.333Z,99992.19
2023-12-14T15:35:38.137Z,100001.78
2023-12-14T15:38:09.984Z,100017.69
2023-12-14T15:40:42.418Z,100013.22
2023-12-14T15:43:15.344Z,100024.13
2023-12-14T15:45:47.157Z,100020.06
2023-12-14T15:48:19.185Z,100016.03
2023-12-14T15:50:51.260Z,100022.47
2023-12-14T15:53:23.167Z,100009.47
2023-12-14T15:55:54.982Z,100040.13
2023-12-14T15:58:27.430Z,100046.03
2023-12-14T16:00:59.250Z,100049.59
2023-12-14T16:03:31.189Z,100053.97
2023-12-14T16:06:03.268Z,100061.69
2023-12-14T16:08:35.307Z,100055.88
2023-12-14T16:11:07.893Z,100055.81
2023-12-14T16:13:40.625Z,100069.56
2023-12-14T16:16:12.436Z,100069.00
2023-12-14T16:18:44.526Z,100077.69
2023-12-14T16:21:16.422Z,100065.41
2023-12-14T16:23:48.190Z,100084.38
2023-12-14T16:26:19.962Z,100066.75
2023-12-14T16:28:51.850Z,100089.50
2023-12-14T16:31:23.640Z,100093.91
2023-12-14T16:33:55.514Z,100077.03
2023-12-14T16:36:27.352Z,100094.97
2023-12-14T16:39:00.532Z,100096.88
2023-12-14T16:41:32.357Z,100092.47
2023-12-14T16:44:05.893Z,100098.31
2023-12-14T16:46:37.725Z,100085.66
2023-12-14T16:49:09.537Z,100106.97
2023-12-14T16:51:41.315Z,100104.00
2023-12-14T16:54:13.211Z,100106.09
2023-12-14T16:56:44.995Z,100109.00
2023-12-14T16:59:16.917Z,100098.88
2023-12-14T17:01:48.963Z,100119.53
2023-12-14T17:04:20.778Z,100131.13
2023-12-14T17:06:53.647Z,100127.81
2023-12-14T17:09:28.824Z,100120.34
2023-12-14T17:12:00.651Z,100106.38
2023-12-14T17:14:32.429Z,100134.97
2023-12-14T17:17:04.739Z,100125.69
2023-12-14T17:19:36.965Z,100106.59
2023-12-14T17:22:08.724Z,100124.94
2023-12-14T17:24:40.495Z,100113.09
2023-12-14T17:27:12.268Z,100137.91
2023-12-14T17:29:44.074Z,100134.19
2023-12-14T17:32:15.879Z,100142.28
2023-12-14T17:34:47.880Z,100150.72
2023-12-14T17:37:21.231Z,100145.81
2023-12-14T17:39:53.156Z,100135.72
2023-12-14T17:42:24.981Z,100160.63
2023-12-14T17:44:56.741Z,100148.38
2023-12-14T17:47:28.751Z,100152.06
2023-12-14T17:50:01.895Z,100149.56
2023-12-14T17:52:33.868Z,100174.44
2023-12-14T17:55:06.268Z,100170.44
2023-12-14T17:57:40.797Z,100155.47
2023-12-14T18:00:13.100Z,100161.03
2023-12-14T18:02:44.912Z,100151.28
2023-12-14T18:05:16.934Z,100179.78
2023-12-14T18:07:50.743Z,100164.88
2023-12-14T18:10:22.573Z,100195.44
2023-12-14T18:12:57.733Z,100194.72
2023-12-14T18:15:29.662Z,100184.69
2023-12-14T18:18:01.797Z,100192.94
2023-12-14T18:20:34.157Z,100181.56
2023-12-14T18:23:07.789Z,100204.06
2023-12-14T18:25:39.855Z,100202.81
2023-12-14T18:28:11.630Z,100204.41
2023-12-14T18:30:43.474Z,100204.72
2023-12-14T18:33:15.623Z,100229.22
2023-12-14T18:35:47.561Z,100232.34
2023-12-14T18:38:19.348Z,100189.56
2023-12-14T18:40:51.211Z,100239.31
2023-12-14T18:43:22.994Z,100220.47
2023-12-14T18:45:54.799Z,100227.75
2023-12-14T18:48:26.797Z,100232.22
2023-12-14T18:50:58.637Z,100238.13
2023-12-14T18:53:30.522Z,100219.00
2023-12-14T18:56:02.456Z,100257.34
2023-12-14T18:58:34.236Z,100240.34
2023-12-14T19:01:06.678Z,100256.66
2023-12-14T19:03:40.030Z,100274.25
2023-12-14T19:06:12.030Z,100265.94
2023-12-14T19:08:44.223Z,100266.88
2023-12-14T19:11:20.562Z,100278.50
2023-12-14T19:13:53.034Z,100275.94
2023-12-14T19:16:31.071Z,100274.25
2023-12-14T19:19:04.349Z,100261.53
2023-12-14T19:21:36.391Z,100280.38
2023-12-14T19:24:08.826Z,100267.03
2023-12-14T19:26:43.716Z,100290.59
2023-12-14T19:29:16.437Z,100289.00
2023-12-14T19:31:48.501Z,100301.66
2023-12-14T19:34:20.320Z,100283.94
2023-12-14T19:36:52.067Z,100310.34
2023-12-14T19:39:24.032Z,100304.22
2023-12-14T19:41:55.786Z,100325.69
2023-12-14T19:44:27.693Z,100322.88
2023-12-14T19:46:59.613Z,100312.22
2023-12-14T19:49:31.421Z,100326.31
2023-12-14T19:52:03.296Z,100328.31
2023-12-14T19:54:37.335Z,100348.16
2023-12-14T19:57:10.556Z,100350.78
2023-12-14T19:59:43.338Z,100345.19
2023-12-14T20:02:15.627Z,100337.50
2023-12-14T20:04:47.485Z,100347.34
2023-12-14T20:07:20.560Z,100365.22
2023-12-14T20:10:00.861Z,100352.28
2023-12-14T20:12:35.562Z,100344.25
2023-12-14T20:15:08.014Z,100359.97
2023-12-14T20:17:40.096Z,100371.56
2023-12-14T20:20:12.372Z,100342.13
2023-12-14T20:22:44.221Z,100365.75
2023-12-14T20:25:16.087Z,100352.56
2023-12-14T20:27:47.886Z,100366.72
2023-12-14T20:30:20.154Z,100376.00
2023-12-14T20:32:51.963Z,100378.16
2023-12-14T20:35:23.840Z,100372.56
2023-12-14T20:37:55.688Z,100379.84
2023-12-14T20:40:29.565Z,100380.84
2023-12-14T20:43:04.169Z,100379.28
2023-12-14T20:45:35.962Z,100356.47
2023-12-14T20:48:07.800Z,100378.75
2023-12-14T20:50:39.708Z,100395.44
2023-12-14T20:53:11.565Z,100402.13
2023-12-14T20:55:43.391Z,100415.91
2023-12-14T20:58:15.180Z,100416.63
2023-12-14T21:00:47.105Z,100402.47
2023-12-14T21:03:18.989Z,100421.63
2023-12-14T21:05:50.882Z,100427.31
2023-12-14T21:08:22.720Z,100431.16
2023-12-14T21:10:54.659Z,100437.97
2023-12-14T21:13:26.507Z,100426.28
2023-12-14T21:15:58.626Z,100440.25
2023-12-14T21:18:30.660Z,100414.69
2023-12-14T21:21:03.491Z,100444.63
2023-12-14T21:23:36.076Z,100435.72
2023-12-14T21:26:13.587Z,100458.66
2023-12-14T21:28:45.454Z,100460.09
2023-12-14T21:31:17.247Z,100463.78
2023-12-14T21:33:49.223Z,100442.81
2023-12-14T21:36:21.140Z,100475.03
2023-12-14T21:38:52.914Z,100464.91
2023-12-14T21:41:24.735Z,100482.88
2023-12-14T21:43:56.560Z,100472.13
2023-12-14T21:46:28.844Z,100477.16
2023-12-14T21:49:10.133Z,100478.97
2023-12-14T21:51:49.229Z,100477.59
2023-12-14T21:54:23.978Z,100493.25
2023-12-14T21:56:55.747Z,100503.78
2023-12-14T21:59:27.615Z,100501.09
2023-12-14T22:01:59.636Z,100502.19
2023-12-14T22:04:31.405Z,100508.00
2023-12-14T22:07:03.487Z,100519.28
2023-12-14T22:09:35.283Z,100518.72
2023-12-14T22:12:07.441Z,100510.31
2023-12-14T22:14:39.267Z,100529.63
2023-12-14T22:17:11.131Z,100517.34
2023-12-14T22:19:43.088Z,100524.72
2023-12-14T22:22:14.857Z,100543.06
2023-12-14T22:24:46.640Z,100545.63
2023-12-14T22:27:18.396Z,100543.19
2023-12-14T22:29:50.253Z,100564.59
2023-12-14T22:32:22.222Z,100552.97
2023-12-14T22:34:54.175Z,100563.25
2023-12-14T22:37:26.007Z,100553.91
2023-12-14T22:39:57.929Z,100574.97
2023-12-14T22:42:29.711Z,100571.97
2023-12-14T22:45:01.557Z,100558.13
2023-12-14T22:47:33.564Z,100584.47
2023-12-14T22:50:06.932Z,100591.22
2023-12-14T22:52:38.756Z,100581.34
2023-12-14T22:55:13.156Z,100568.56
2023-12-14T22:57:45.600Z,100586.28
2023-12-14T23:00:23.206Z,100588.16
2023-12-14T23:02:55.456Z,100599.69
2023-12-14T23:05:27.255Z,100598.25
2023-12-14T23:07:59.138Z,100596.47
2023-12-14T23:10:30.941Z,100606.25
2023-12-14T23:13:02.876Z,100607.81
2023-12-14T23:15:34.653Z,100602.97
2023-12-14T23:18:06.535Z,100609.66
2023-12-14T23:20:38.542Z,100613.34
2023-12-14T23:23:10.543Z,100603.91
2023-12-14T23:25:42.372Z,100612.28
2023-12-14T23:28:14.856Z,100627.59
2023-12-14T23:30:46.811Z,100620.72
2023-12-14T23:33:19.293Z,100621.63
2023-12-14T23:35:51.397Z,100632.75
2023-12-14T23:38:23.311Z,100630.28
2023-12-14T23:40:55.502Z,100610.53
2023-12-14T23:43:27.457Z,100630.69
2023-12-14T23:45:59.268Z,100653.31
2023-12-14T23:48:31.141Z,100634.09
2023-12-14T23:51:03.007Z,100655.22
2023-12-14T23:53:34.813Z,100643.28
2023-12-14T23:56:07.506Z,100636.84
2023-12-14T23:58:39.495Z,100643.66
